sensor_id;sensor_type;location;lat;lon;timestamp;P1;durP1;ratioP1;P2;durP2;ratioP2
80758;SDS011;70150;45.582;10.178;2023-08-01T00:00:39;5.35;;;3.40;;
80758;SDS011;70150;45.582;10.178;2023-08-01T00:03:05;4.57;;;3.03;;
80758;SDS011;70150;45.582;10.178;2023-08-01T00:05:30;4.18;;;3.05;;
80758;SDS011;70150;45.582;10.178;2023-08-01T00:07:56;3.90;;;3.10;;
80758;SDS011;70150;45.582;10.178;2023-08-01T00:10:21;7.75;;;3.50;;
80758;SDS011;70150;45.582;10.178;2023-08-01T00:12:47;4.32;;;3.33;;
80758;SDS011;70150;45.582;10.178;2023-08-01T00:15:13;3.38;;;2.78;;
80758;SDS011;70150;45.582;10.178;2023-08-01T00:17:39;6.18;;;3.47;;
80758;SDS011;70150;45.582;10.178;2023-08-01T00:20:05;4.35;;;3.80;;
80758;SDS011;70150;45.582;10.178;2023-08-01T00:22:31;3.88;;;3.35;;
80758;SDS011;70150;45.582;10.178;2023-08-01T00:24:57;4.45;;;3.25;;
80758;SDS011;70150;45.582;10.178;2023-08-01T00:27:23;5.10;;;3.63;;
80758;SDS011;70150;45.582;10.178;2023-08-01T00:29:49;4.07;;;3.40;;
80758;SDS011;70150;45.582;10.178;2023-08-01T00:32:15;6.28;;;3.30;;
80758;SDS011;70150;45.582;10.178;2023-08-01T00:34:40;8.95;;;3.58;;
80758;SDS011;70150;45.582;10.178;2023-08-01T00:37:06;4.60;;;3.17;;
80758;SDS011;70150;45.582;10.178;2023-08-01T00:39:31;6.60;;;2.97;;
80758;SDS011;70150;45.582;10.178;2023-08-01T00:41:57;4.78;;;3.45;;
80758;SDS011;70150;45.582;10.178;2023-08-01T00:44:23;7.25;;;2.67;;
80758;SDS011;70150;45.582;10.178;2023-08-01T00:46:50;5.20;;;3.40;;
80758;SDS011;70150;45.582;10.178;2023-08-01T00:49:16;5.57;;;2.97;;
80758;SDS011;70150;45.582;10.178;2023-08-01T00:51:42;5.20;;;3.65;;
80758;SDS011;70150;45.582;10.178;2023-08-01T00:54:08;6.07;;;3.10;;
80758;SDS011;70150;45.582;10.178;2023-08-01T00:56:34;3.92;;;3.17;;
80758;SDS011;70150;45.582;10.178;2023-08-01T00:59:00;7.28;;;3.28;;
80758;SDS011;70150;45.582;10.178;2023-08-01T01:01:26;3.90;;;2.67;;
80758;SDS011;70150;45.582;10.178;2023-08-01T01:03:51;4.25;;;3.10;;
80758;SDS011;70150;45.582;10.178;2023-08-01T01:08:49;6.15;;;3.45;;
80758;SDS011;70150;45.582;10.178;2023-08-01T01:11:15;7.93;;;3.22;;
80758;SDS011;70150;45.582;10.178;2023-08-01T01:13:40;5.82;;;3.40;;
80758;SDS011;70150;45.582;10.178;2023-08-01T01:16:06;3.90;;;3.30;;
80758;SDS011;70150;45.582;10.178;2023-08-01T01:18:32;4.53;;;3.03;;
80758;SDS011;70150;45.582;10.178;2023-08-01T01:20:57;5.35;;;3.00;;
80758;SDS011;70150;45.582;10.178;2023-08-01T01:23:23;4.40;;;3.15;;
80758;SDS011;70150;45.582;10.178;2023-08-01T01:25:51;4.50;;;3.38;;
80758;SDS011;70150;45.582;10.178;2023-08-01T01:28:17;4.28;;;3.10;;
80758;SDS011;70150;45.582;10.178;2023-08-01T01:30:44;3.72;;;2.83;;
80758;SDS011;70150;45.582;10.178;2023-08-01T01:33:11;3.47;;;3.08;;
80758;SDS011;70150;45.582;10.178;2023-08-01T01:35:37;6.25;;;2.60;;
80758;SDS011;70150;45.582;10.178;2023-08-01T01:38:03;7.45;;;3.17;;
80758;SDS011;70150;45.582;10.178;2023-08-01T01:40:32;5.72;;;2.83;;
80758;SDS011;70150;45.582;10.178;2023-08-01T01:45:24;2.95;;;2.47;;
80758;SDS011;70150;45.582;10.178;2023-08-01T01:47:49;4.55;;;3.08;;
80758;SDS011;70150;45.582;10.178;2023-08-01T01:50:15;3.83;;;2.97;;
80758;SDS011;70150;45.582;10.178;2023-08-01T01:52:40;4.05;;;3.05;;
80758;SDS011;70150;45.582;10.178;2023-08-01T01:55:06;4.72;;;2.72;;
80758;SDS011;70150;45.582;10.178;2023-08-01T01:57:32;3.95;;;2.80;;
80758;SDS011;70150;45.582;10.178;2023-08-01T01:59:58;4.05;;;3.10;;
80758;SDS011;70150;45.582;10.178;2023-08-01T02:02:24;4.97;;;3.05;;
80758;SDS011;70150;45.582;10.178;2023-08-01T02:04:50;5.65;;;3.20;;
80758;SDS011;70150;45.582;10.178;2023-08-01T02:07:18;4.90;;;3.20;;
80758;SDS011;70150;45.582;10.178;2023-08-01T02:09:43;5.50;;;3.40;;
80758;SDS011;70150;45.582;10.178;2023-08-01T02:12:09;3.50;;;2.97;;
80758;SDS011;70150;45.582;10.178;2023-08-01T02:14:38;5.53;;;3.00;;
80758;SDS011;70150;45.582;10.178;2023-08-01T02:17:04;4.97;;;3.20;;
80758;SDS011;70150;45.582;10.178;2023-08-01T02:19:33;4.03;;;3.08;;
80758;SDS011;70150;45.582;10.178;2023-08-01T02:21:58;3.45;;;2.67;;
80758;SDS011;70150;45.582;10.178;2023-08-01T02:24:24;3.67;;;2.90;;
80758;SDS011;70150;45.582;10.178;2023-08-01T02:26:50;5.10;;;3.00;;
80758;SDS011;70150;45.582;10.178;2023-08-01T02:29:16;5.75;;;3.05;;
80758;SDS011;70150;45.582;10.178;2023-08-01T02:31:42;5.05;;;3.22;;
80758;SDS011;70150;45.582;10.178;2023-08-01T02:34:07;5.78;;;3.00;;
80758;SDS011;70150;45.582;10.178;2023-08-01T02:36:33;5.20;;;2.80;;
80758;SDS011;70150;45.582;10.178;2023-08-01T02:38:58;7.30;;;2.95;;
80758;SDS011;70150;45.582;10.178;2023-08-01T02:41:24;3.63;;;3.10;;
80758;SDS011;70150;45.582;10.178;2023-08-01T02:43:50;4.05;;;3.10;;
80758;SDS011;70150;45.582;10.178;2023-08-01T02:46:16;5.88;;;2.78;;
80758;SDS011;70150;45.582;10.178;2023-08-01T02:48:41;3.78;;;2.88;;
80758;SDS011;70150;45.582;10.178;2023-08-01T02:51:07;3.47;;;2.88;;
80758;SDS011;70150;45.582;10.178;2023-08-01T02:53:34;3.65;;;3.13;;
80758;SDS011;70150;45.582;10.178;2023-08-01T02:56:01;3.70;;;3.03;;
80758;SDS011;70150;45.582;10.178;2023-08-01T02:58:26;4.88;;;3.22;;
80758;SDS011;70150;45.582;10.178;2023-08-01T03:00:52;7.50;;;3.65;;
80758;SDS011;70150;45.582;10.178;2023-08-01T03:03:17;4.18;;;3.35;;
80758;SDS011;70150;45.582;10.178;2023-08-01T03:05:43;5.03;;;2.72;;
80758;SDS011;70150;45.582;10.178;2023-08-01T03:08:09;4.72;;;2.10;;
80758;SDS011;70150;45.582;10.178;2023-08-01T03:10:34;1.67;;;1.42;;
80758;SDS011;70150;45.582;10.178;2023-08-01T03:13:00;1.70;;;1.23;;
80758;SDS011;70150;45.582;10.178;2023-08-01T03:15:26;3.28;;;1.27;;
80758;SDS011;70150;45.582;10.178;2023-08-01T03:17:52;1.75;;;0.98;;
80758;SDS011;70150;45.582;10.178;2023-08-01T03:20:17;1.98;;;1.30;;
80758;SDS011;70150;45.582;10.178;2023-08-01T03:22:43;5.18;;;1.13;;
80758;SDS011;70150;45.582;10.178;2023-08-01T03:25:09;2.60;;;1.15;;
80758;SDS011;70150;45.582;10.178;2023-08-01T03:27:35;2.25;;;1.08;;
80758;SDS011;70150;45.582;10.178;2023-08-01T03:30:00;3.00;;;1.02;;
80758;SDS011;70150;45.582;10.178;2023-08-01T03:32:27;2.70;;;1.10;;
80758;SDS011;70150;45.582;10.178;2023-08-01T03:34:52;2.92;;;1.10;;
80758;SDS011;70150;45.582;10.178;2023-08-01T03:37:18;1.92;;;0.70;;
80758;SDS011;70150;45.582;10.178;2023-08-01T03:39:44;2.75;;;1.20;;
80758;SDS011;70150;45.582;10.178;2023-08-01T03:42:09;3.50;;;1.23;;
80758;SDS011;70150;45.582;10.178;2023-08-01T03:44:35;5.20;;;1.60;;
80758;SDS011;70150;45.582;10.178;2023-08-01T03:47:00;2.38;;;1.23;;
80758;SDS011;70150;45.582;10.178;2023-08-01T03:49:26;2.20;;;1.27;;
80758;SDS011;70150;45.582;10.178;2023-08-01T03:51:54;2.70;;;1.00;;
80758;SDS011;70150;45.582;10.178;2023-08-01T03:54:19;1.75;;;1.00;;
80758;SDS011;70150;45.582;10.178;2023-08-01T03:56:45;1.88;;;1.10;;
80758;SDS011;70150;45.582;10.178;2023-08-01T03:59:11;1.70;;;1.10;;
80758;SDS011;70150;45.582;10.178;2023-08-01T04:01:38;1.60;;;1.08;;
80758;SDS011;70150;45.582;10.178;2023-08-01T04:04:06;3.22;;;1.05;;
80758;SDS011;70150;45.582;10.178;2023-08-01T04:06:34;3.85;;;1.20;;
80758;SDS011;70150;45.582;10.178;2023-08-01T04:09:00;1.38;;;0.90;;
80758;SDS011;70150;45.582;10.178;2023-08-01T04:11:26;1.45;;;0.90;;
80758;SDS011;70150;45.582;10.178;2023-08-01T04:13:52;1.80;;;0.80;;
80758;SDS011;70150;45.582;10.178;2023-08-01T04:16:18;1.00;;;0.70;;
80758;SDS011;70150;45.582;10.178;2023-08-01T04:18:44;3.83;;;1.25;;
80758;SDS011;70150;45.582;10.178;2023-08-01T04:21:11;1.30;;;0.55;;
80758;SDS011;70150;45.582;10.178;2023-08-01T04:23:38;3.15;;;0.90;;
80758;SDS011;70150;45.582;10.178;2023-08-01T04:26:03;1.13;;;0.80;;
80758;SDS011;70150;45.582;10.178;2023-08-01T04:28:31;1.45;;;0.90;;
80758;SDS011;70150;45.582;10.178;2023-08-01T04:30:57;2.58;;;0.95;;
80758;SDS011;70150;45.582;10.178;2023-08-01T04:33:25;1.75;;;0.93;;
80758;SDS011;70150;45.582;10.178;2023-08-01T04:35:53;1.58;;;0.90;;
80758;SDS011;70150;45.582;10.178;2023-08-01T04:38:19;2.88;;;1.35;;
80758;SDS011;70150;45.582;10.178;2023-08-01T04:40:45;3.03;;;1.23;;
80758;SDS011;70150;45.582;10.178;2023-08-01T04:43:13;3.42;;;1.75;;
80758;SDS011;70150;45.582;10.178;2023-08-01T04:45:39;2.40;;;1.70;;
80758;SDS011;70150;45.582;10.178;2023-08-01T04:48:04;2.50;;;1.80;;
80758;SDS011;70150;45.582;10.178;2023-08-01T04:50:30;1.67;;;1.58;;
80758;SDS011;70150;45.582;10.178;2023-08-01T04:52:56;4.07;;;1.92;;
80758;SDS011;70150;45.582;10.178;2023-08-01T04:55:22;3.53;;;2.33;;
80758;SDS011;70150;45.582;10.178;2023-08-01T04:57:48;4.07;;;2.20;;
80758;SDS011;70150;45.582;10.178;2023-08-01T05:00:14;2.40;;;1.92;;
80758;SDS011;70150;45.582;10.178;2023-08-01T05:02:40;3.58;;;2.13;;
80758;SDS011;70150;45.582;10.178;2023-08-01T05:05:06;3.88;;;2.50;;
80758;SDS011;70150;45.582;10.178;2023-08-01T05:07:32;2.63;;;2.30;;
80758;SDS011;70150;45.582;10.178;2023-08-01T05:09:58;3.03;;;1.98;;
80758;SDS011;70150;45.582;10.178;2023-08-01T05:12:24;3.25;;;2.20;;
80758;SDS011;70150;45.582;10.178;2023-08-01T05:14:49;5.95;;;2.30;;
80758;SDS011;70150;45.582;10.178;2023-08-01T05:17:15;3.22;;;2.35;;
80758;SDS011;70150;45.582;10.178;2023-08-01T05:19:41;3.92;;;2.42;;
80758;SDS011;70150;45.582;10.178;2023-08-01T05:22:06;3.25;;;2.33;;
80758;SDS011;70150;45.582;10.178;2023-08-01T05:24:32;2.83;;;2.25;;
80758;SDS011;70150;45.582;10.178;2023-08-01T05:26:57;3.15;;;2.55;;
80758;SDS011;70150;45.582;10.178;2023-08-01T05:29:23;4.43;;;3.03;;
80758;SDS011;70150;45.582;10.178;2023-08-01T05:31:48;3.38;;;2.65;;
80758;SDS011;70150;45.582;10.178;2023-08-01T05:34:14;4.28;;;2.80;;
80758;SDS011;70150;45.582;10.178;2023-08-01T05:36:40;4.30;;;2.55;;
80758;SDS011;70150;45.582;10.178;2023-08-01T05:39:05;3.20;;;2.40;;
80758;SDS011;70150;45.582;10.178;2023-08-01T05:41:31;4.97;;;2.53;;
80758;SDS011;70150;45.582;10.178;2023-08-01T05:43:57;3.50;;;2.35;;
80758;SDS011;70150;45.582;10.178;2023-08-01T05:46:24;4.10;;;2.75;;
80758;SDS011;70150;45.582;10.178;2023-08-01T05:48:50;3.53;;;2.28;;
80758;SDS011;70150;45.582;10.178;2023-08-01T05:51:16;4.07;;;2.78;;
80758;SDS011;70150;45.582;10.178;2023-08-01T05:53:42;2.67;;;2.42;;
80758;SDS011;70150;45.582;10.178;2023-08-01T05:56:08;5.05;;;2.78;;
80758;SDS011;70150;45.582;10.178;2023-08-01T05:58:34;3.15;;;2.50;;
80758;SDS011;70150;45.582;10.178;2023-08-01T06:00:59;3.30;;;2.65;;
80758;SDS011;70150;45.582;10.178;2023-08-01T06:03:25;4.93;;;3.28;;
80758;SDS011;70150;45.582;10.178;2023-08-01T06:05:50;4.25;;;3.10;;
80758;SDS011;70150;45.582;10.178;2023-08-01T06:08:16;3.35;;;2.83;;
80758;SDS011;70150;45.582;10.178;2023-08-01T06:10:42;4.00;;;2.60;;
80758;SDS011;70150;45.582;10.178;2023-08-01T06:13:09;4.60;;;2.95;;
80758;SDS011;70150;45.582;10.178;2023-08-01T06:15:35;4.25;;;2.80;;
80758;SDS011;70150;45.582;10.178;2023-08-01T06:18:01;5.60;;;3.00;;
80758;SDS011;70150;45.582;10.178;2023-08-01T06:20:27;4.65;;;3.15;;
80758;SDS011;70150;45.582;10.178;2023-08-01T06:22:53;5.03;;;3.30;;
80758;SDS011;70150;45.582;10.178;2023-08-01T06:25:19;4.18;;;3.17;;
80758;SDS011;70150;45.582;10.178;2023-08-01T06:27:44;3.92;;;3.00;;
80758;SDS011;70150;45.582;10.178;2023-08-01T06:30:10;3.95;;;2.83;;
80758;SDS011;70150;45.582;10.178;2023-08-01T06:32:36;6.55;;;3.35;;
80758;SDS011;70150;45.582;10.178;2023-08-01T06:35:02;7.15;;;3.53;;
80758;SDS011;70150;45.582;10.178;2023-08-01T06:37:30;6.80;;;3.63;;
80758;SDS011;70150;45.582;10.178;2023-08-01T06:39:58;6.60;;;3.75;;
80758;SDS011;70150;45.582;10.178;2023-08-01T06:42:24;4.65;;;3.80;;
80758;SDS011;70150;45.582;10.178;2023-08-01T06:44:51;8.70;;;4.22;;
80758;SDS011;70150;45.582;10.178;2023-08-01T06:47:16;7.13;;;3.90;;
80758;SDS011;70150;45.582;10.178;2023-08-01T06:49:43;6.25;;;3.80;;
80758;SDS011;70150;45.582;10.178;2023-08-01T06:52:09;6.07;;;3.58;;
80758;SDS011;70150;45.582;10.178;2023-08-01T06:54:35;5.88;;;3.45;;
80758;SDS011;70150;45.582;10.178;2023-08-01T06:57:01;5.53;;;4.20;;
80758;SDS011;70150;45.582;10.178;2023-08-01T06:59:27;6.47;;;3.38;;
80758;SDS011;70150;45.582;10.178;2023-08-01T07:01:53;6.00;;;3.72;;
80758;SDS011;70150;45.582;10.178;2023-08-01T07:04:19;5.97;;;3.40;;
80758;SDS011;70150;45.582;10.178;2023-08-01T07:06:44;5.13;;;3.20;;
80758;SDS011;70150;45.582;10.178;2023-08-01T07:09:10;5.05;;;3.30;;
80758;SDS011;70150;45.582;10.178;2023-08-01T07:11:36;5.78;;;3.25;;
80758;SDS011;70150;45.582;10.178;2023-08-01T07:14:01;5.72;;;3.35;;
80758;SDS011;70150;45.582;10.178;2023-08-01T07:16:27;5.65;;;3.25;;
80758;SDS011;70150;45.582;10.178;2023-08-01T07:18:53;6.10;;;3.38;;
80758;SDS011;70150;45.582;10.178;2023-08-01T07:21:19;4.70;;;3.40;;
80758;SDS011;70150;45.582;10.178;2023-08-01T07:23:45;5.03;;;3.20;;
80758;SDS011;70150;45.582;10.178;2023-08-01T07:26:12;6.45;;;3.33;;
80758;SDS011;70150;45.582;10.178;2023-08-01T07:28:37;7.00;;;3.25;;
80758;SDS011;70150;45.582;10.178;2023-08-01T07:31:06;5.72;;;3.10;;
80758;SDS011;70150;45.582;10.178;2023-08-01T07:33:32;5.82;;;3.25;;
80758;SDS011;70150;45.582;10.178;2023-08-01T07:36:03;8.25;;;3.45;;
80758;SDS011;70150;45.582;10.178;2023-08-01T07:38:29;5.60;;;3.30;;
80758;SDS011;70150;45.582;10.178;2023-08-01T07:41:01;5.18;;;3.33;;
80758;SDS011;70150;45.582;10.178;2023-08-01T07:43:28;3.60;;;3.03;;
80758;SDS011;70150;45.582;10.178;2023-08-01T07:45:56;4.05;;;3.38;;
80758;SDS011;70150;45.582;10.178;2023-08-01T07:48:22;4.80;;;3.28;;
80758;SDS011;70150;45.582;10.178;2023-08-01T07:50:50;3.83;;;2.97;;
80758;SDS011;70150;45.582;10.178;2023-08-01T07:53:18;3.50;;;2.67;;
80758;SDS011;70150;45.582;10.178;2023-08-01T07:55:44;3.92;;;2.42;;
80758;SDS011;70150;45.582;10.178;2023-08-01T07:58:09;2.70;;;2.35;;
80758;SDS011;70150;45.582;10.178;2023-08-01T08:00:35;3.25;;;2.58;;
80758;SDS011;70150;45.582;10.178;2023-08-01T08:03:01;3.88;;;2.70;;
80758;SDS011;70150;45.582;10.178;2023-08-01T08:05:26;5.22;;;2.20;;
80758;SDS011;70150;45.582;10.178;2023-08-01T08:07:52;3.80;;;2.30;;
80758;SDS011;70150;45.582;10.178;2023-08-01T08:10:17;3.53;;;2.70;;
80758;SDS011;70150;45.582;10.178;2023-08-01T08:12:43;5.53;;;2.67;;
80758;SDS011;70150;45.582;10.178;2023-08-01T08:15:09;4.05;;;2.67;;
80758;SDS011;70150;45.582;10.178;2023-08-01T08:17:34;5.47;;;2.33;;
80758;SDS011;70150;45.582;10.178;2023-08-01T08:20:00;3.97;;;2.13;;
80758;SDS011;70150;45.582;10.178;2023-08-01T08:22:26;4.63;;;2.17;;
80758;SDS011;70150;45.582;10.178;2023-08-01T08:24:52;3.25;;;1.98;;
80758;SDS011;70150;45.582;10.178;2023-08-01T08:27:18;3.17;;;2.10;;
80758;SDS011;70150;45.582;10.178;2023-08-01T08:29:44;3.10;;;2.08;;
80758;SDS011;70150;45.582;10.178;2023-08-01T08:32:10;4.38;;;1.90;;
80758;SDS011;70150;45.582;10.178;2023-08-01T08:34:36;2.22;;;1.85;;
80758;SDS011;70150;45.582;10.178;2023-08-01T08:37:02;2.50;;;1.92;;
80758;SDS011;70150;45.582;10.178;2023-08-01T08:41:54;2.80;;;1.85;;
80758;SDS011;70150;45.582;10.178;2023-08-01T08:44:20;3.65;;;1.75;;
80758;SDS011;70150;45.582;10.178;2023-08-01T08:46:51;3.10;;;1.90;;
80758;SDS011;70150;45.582;10.178;2023-08-01T08:49:19;2.92;;;1.70;;
80758;SDS011;70150;45.582;10.178;2023-08-01T08:51:46;4.72;;;2.08;;
80758;SDS011;70150;45.582;10.178;2023-08-01T08:54:14;2.67;;;1.80;;
80758;SDS011;70150;45.582;10.178;2023-08-01T08:56:41;3.60;;;1.60;;
80758;SDS011;70150;45.582;10.178;2023-08-01T08:59:08;4.75;;;1.83;;
80758;SDS011;70150;45.582;10.178;2023-08-01T09:01:36;2.10;;;1.55;;
80758;SDS011;70150;45.582;10.178;2023-08-01T09:04:03;3.97;;;2.13;;
80758;SDS011;70150;45.582;10.178;2023-08-01T09:06:31;3.47;;;1.60;;
80758;SDS011;70150;45.582;10.178;2023-08-01T09:11:37;3.25;;;2.22;;
80758;SDS011;70150;45.582;10.178;2023-08-01T09:14:07;4.30;;;2.20;;
80758;SDS011;70150;45.582;10.178;2023-08-01T09:16:34;3.85;;;1.92;;
80758;SDS011;70150;45.582;10.178;2023-08-01T09:19:00;4.18;;;2.00;;
80758;SDS011;70150;45.582;10.178;2023-08-01T09:21:26;3.28;;;1.90;;
80758;SDS011;70150;45.582;10.178;2023-08-01T09:23:52;5.57;;;2.22;;
80758;SDS011;70150;45.582;10.178;2023-08-01T09:26:18;3.13;;;1.80;;
80758;SDS011;70150;45.582;10.178;2023-08-01T09:31:25;4.57;;;1.98;;
80758;SDS011;70150;45.582;10.178;2023-08-01T09:33:51;3.20;;;1.65;;
80758;SDS011;70150;45.582;10.178;2023-08-01T09:36:20;3.13;;;2.20;;
80758;SDS011;70150;45.582;10.178;2023-08-01T09:38:49;3.03;;;2.20;;
80758;SDS011;70150;45.582;10.178;2023-08-01T09:41:17;4.07;;;2.30;;
80758;SDS011;70150;45.582;10.178;2023-08-01T09:43:44;4.78;;;2.15;;
80758;SDS011;70150;45.582;10.178;2023-08-01T09:46:11;3.75;;;2.15;;
80758;SDS011;70150;45.582;10.178;2023-08-01T09:48:37;5.72;;;2.50;;
80758;SDS011;70150;45.582;10.178;2023-08-01T09:53:32;4.57;;;3.00;;
80758;SDS011;70150;45.582;10.178;2023-08-01T09:55:59;4.00;;;2.40;;
80758;SDS011;70150;45.582;10.178;2023-08-01T09:58:27;5.57;;;2.38;;
80758;SDS011;70150;45.582;10.178;2023-08-01T10:00:59;6.00;;;2.63;;
80758;SDS011;70150;45.582;10.178;2023-08-01T10:05:55;3.58;;;2.50;;
80758;SDS011;70150;45.582;10.178;2023-08-01T10:08:21;5.15;;;2.58;;
80758;SDS011;70150;45.582;10.178;2023-08-01T10:10:48;4.05;;;2.50;;
80758;SDS011;70150;45.582;10.178;2023-08-01T10:13:14;5.82;;;2.28;;
80758;SDS011;70150;45.582;10.178;2023-08-01T10:15:40;4.30;;;2.50;;
80758;SDS011;70150;45.582;10.178;2023-08-01T10:18:06;5.97;;;2.33;;
80758;SDS011;70150;45.582;10.178;2023-08-01T10:20:34;4.57;;;2.70;;
80758;SDS011;70150;45.582;10.178;2023-08-01T10:23:01;8.50;;;3.00;;
80758;SDS011;70150;45.582;10.178;2023-08-01T10:25:28;3.20;;;2.55;;
80758;SDS011;70150;45.582;10.178;2023-08-01T10:30:27;5.18;;;2.60;;
80758;SDS011;70150;45.582;10.178;2023-08-01T10:32:55;4.53;;;2.97;;
80758;SDS011;70150;45.582;10.178;2023-08-01T10:38:03;4.57;;;2.60;;
80758;SDS011;70150;45.582;10.178;2023-08-01T10:40:34;5.75;;;3.00;;
80758;SDS011;70150;45.582;10.178;2023-08-01T10:43:01;4.53;;;2.65;;
80758;SDS011;70150;45.582;10.178;2023-08-01T10:45:27;7.05;;;2.53;;
80758;SDS011;70150;45.582;10.178;2023-08-01T10:47:54;4.50;;;3.00;;
80758;SDS011;70150;45.582;10.178;2023-08-01T10:50:32;5.03;;;2.83;;
80758;SDS011;70150;45.582;10.178;2023-08-01T10:58:03;6.95;;;3.72;;
80758;SDS011;70150;45.582;10.178;2023-08-01T11:02:55;5.53;;;3.25;;
80758;SDS011;70150;45.582;10.178;2023-08-01T11:05:21;5.57;;;3.13;;
80758;SDS011;70150;45.582;10.178;2023-08-01T11:10:19;7.50;;;3.60;;
80758;SDS011;70150;45.582;10.178;2023-08-01T11:12:47;4.82;;;3.40;;
80758;SDS011;70150;45.582;10.178;2023-08-01T11:15:14;6.45;;;2.92;;
80758;SDS011;70150;45.582;10.178;2023-08-01T11:17:42;6.15;;;3.10;;
80758;SDS011;70150;45.582;10.178;2023-08-01T11:20:11;4.00;;;3.40;;
80758;SDS011;70150;45.582;10.178;2023-08-01T11:22:48;6.53;;;3.63;;
80758;SDS011;70150;45.582;10.178;2023-08-01T11:25:16;5.00;;;3.38;;
80758;SDS011;70150;45.582;10.178;2023-08-01T11:27:41;5.40;;;3.40;;
80758;SDS011;70150;45.582;10.178;2023-08-01T11:30:08;4.55;;;3.22;;
80758;SDS011;70150;45.582;10.178;2023-08-01T11:32:37;6.43;;;3.60;;
80758;SDS011;70150;45.582;10.178;2023-08-01T11:35:03;7.60;;;3.13;;
80758;SDS011;70150;45.582;10.178;2023-08-01T11:37:30;4.60;;;2.80;;
80758;SDS011;70150;45.582;10.178;2023-08-01T11:39:57;8.63;;;3.25;;
80758;SDS011;70150;45.582;10.178;2023-08-01T11:42:24;5.20;;;3.17;;
80758;SDS011;70150;45.582;10.178;2023-08-01T11:44:50;5.75;;;3.22;;
80758;SDS011;70150;45.582;10.178;2023-08-01T11:47:17;4.43;;;2.90;;
80758;SDS011;70150;45.582;10.178;2023-08-01T11:49:45;5.38;;;3.13;;
80758;SDS011;70150;45.582;10.178;2023-08-01T11:52:21;3.60;;;2.80;;
80758;SDS011;70150;45.582;10.178;2023-08-01T11:54:50;5.32;;;2.97;;
80758;SDS011;70150;45.582;10.178;2023-08-01T11:57:15;6.65;;;3.30;;
80758;SDS011;70150;45.582;10.178;2023-08-01T12:04:46;5.38;;;2.97;;
80758;SDS011;70150;45.582;10.178;2023-08-01T12:07:13;7.75;;;3.42;;
80758;SDS011;70150;45.582;10.178;2023-08-01T12:09:40;7.22;;;3.40;;
80758;SDS011;70150;45.582;10.178;2023-08-01T12:12:06;4.32;;;2.95;;
80758;SDS011;70150;45.582;10.178;2023-08-01T12:14:34;5.18;;;2.97;;
80758;SDS011;70150;45.582;10.178;2023-08-01T12:17:05;5.72;;;3.45;;
80758;SDS011;70150;45.582;10.178;2023-08-01T12:19:31;6.22;;;3.33;;
80758;SDS011;70150;45.582;10.178;2023-08-01T12:21:58;7.50;;;3.80;;
80758;SDS011;70150;45.582;10.178;2023-08-01T12:24:24;8.35;;;3.75;;
80758;SDS011;70150;45.582;10.178;2023-08-01T12:26:50;5.32;;;3.50;;
80758;SDS011;70150;45.582;10.178;2023-08-01T12:29:18;6.47;;;3.65;;
80758;SDS011;70150;45.582;10.178;2023-08-01T12:31:44;6.93;;;3.88;;
80758;SDS011;70150;45.582;10.178;2023-08-01T12:34:11;7.63;;;3.50;;
80758;SDS011;70150;45.582;10.178;2023-08-01T12:36:37;5.63;;;3.90;;
80758;SDS011;70150;45.582;10.178;2023-08-01T12:39:03;9.55;;;4.05;;
80758;SDS011;70150;45.582;10.178;2023-08-01T12:41:36;9.65;;;4.15;;
80758;SDS011;70150;45.582;10.178;2023-08-01T12:44:03;6.38;;;3.72;;
80758;SDS011;70150;45.582;10.178;2023-08-01T12:46:30;8.77;;;5.43;;
80758;SDS011;70150;45.582;10.178;2023-08-01T12:48:56;8.02;;;4.25;;
80758;SDS011;70150;45.582;10.178;2023-08-01T12:51:22;8.98;;;4.80;;
80758;SDS011;70150;45.582;10.178;2023-08-01T12:53:47;9.40;;;5.10;;
80758;SDS011;70150;45.582;10.178;2023-08-01T12:56:13;12.95;;;4.53;;
80758;SDS011;70150;45.582;10.178;2023-08-01T12:58:38;12.60;;;5.30;;
80758;SDS011;70150;45.582;10.178;2023-08-01T13:01:04;9.00;;;4.40;;
80758;SDS011;70150;45.582;10.178;2023-08-01T13:03:30;9.52;;;5.72;;
80758;SDS011;70150;45.582;10.178;2023-08-01T13:05:55;11.75;;;5.20;;
80758;SDS011;70150;45.582;10.178;2023-08-01T13:10:48;11.55;;;5.85;;
80758;SDS011;70150;45.582;10.178;2023-08-01T13:13:15;10.70;;;5.90;;
80758;SDS011;70150;45.582;10.178;2023-08-01T13:15:42;8.73;;;5.32;;
80758;SDS011;70150;45.582;10.178;2023-08-01T13:18:09;7.40;;;4.65;;
80758;SDS011;70150;45.582;10.178;2023-08-01T13:20:35;7.43;;;4.65;;
80758;SDS011;70150;45.582;10.178;2023-08-01T13:23:02;10.32;;;4.68;;
80758;SDS011;70150;45.582;10.178;2023-08-01T13:25:28;9.70;;;4.72;;
80758;SDS011;70150;45.582;10.178;2023-08-01T13:27:54;7.07;;;4.65;;
80758;SDS011;70150;45.582;10.178;2023-08-01T13:30:20;8.70;;;4.50;;
80758;SDS011;70150;45.582;10.178;2023-08-01T13:32:45;8.13;;;4.82;;
80758;SDS011;70150;45.582;10.178;2023-08-01T13:35:11;6.63;;;4.20;;
80758;SDS011;70150;45.582;10.178;2023-08-01T13:37:40;10.05;;;4.82;;
80758;SDS011;70150;45.582;10.178;2023-08-01T13:40:06;8.10;;;4.07;;
80758;SDS011;70150;45.582;10.178;2023-08-01T13:42:32;8.15;;;4.68;;
80758;SDS011;70150;45.582;10.178;2023-08-01T13:45:00;9.70;;;4.20;;
80758;SDS011;70150;45.582;10.178;2023-08-01T13:47:26;9.95;;;4.55;;
80758;SDS011;70150;45.582;10.178;2023-08-01T13:49:52;8.25;;;4.38;;
80758;SDS011;70150;45.582;10.178;2023-08-01T13:52:17;9.20;;;4.80;;
80758;SDS011;70150;45.582;10.178;2023-08-01T13:54:43;10.98;;;4.68;;
80758;SDS011;70150;45.582;10.178;2023-08-01T13:57:08;8.25;;;4.40;;
80758;SDS011;70150;45.582;10.178;2023-08-01T13:59:34;9.15;;;4.80;;
80758;SDS011;70150;45.582;10.178;2023-08-01T14:02:01;7.13;;;4.40;;
80758;SDS011;70150;45.582;10.178;2023-08-01T14:04:28;6.25;;;4.47;;
80758;SDS011;70150;45.582;10.178;2023-08-01T14:06:53;9.98;;;4.63;;
80758;SDS011;70150;45.582;10.178;2023-08-01T14:11:45;10.45;;;5.38;;
80758;SDS011;70150;45.582;10.178;2023-08-01T14:14:11;8.75;;;4.40;;
80758;SDS011;70150;45.582;10.178;2023-08-01T14:16:39;10.60;;;4.82;;
80758;SDS011;70150;45.582;10.178;2023-08-01T14:19:04;9.40;;;4.70;;
80758;SDS011;70150;45.582;10.178;2023-08-01T14:21:33;7.32;;;4.55;;
80758;SDS011;70150;45.582;10.178;2023-08-01T14:23:59;9.73;;;4.90;;
80758;SDS011;70150;45.582;10.178;2023-08-01T14:26:27;9.20;;;4.80;;
80758;SDS011;70150;45.582;10.178;2023-08-01T14:28:55;9.82;;;4.88;;
80758;SDS011;70150;45.582;10.178;2023-08-01T14:31:21;8.77;;;4.85;;
80758;SDS011;70150;45.582;10.178;2023-08-01T14:33:46;10.82;;;4.80;;
80758;SDS011;70150;45.582;10.178;2023-08-01T14:36:12;9.40;;;5.20;;
80758;SDS011;70150;45.582;10.178;2023-08-01T14:38:38;8.23;;;5.25;;
80758;SDS011;70150;45.582;10.178;2023-08-01T14:41:04;8.23;;;5.22;;
80758;SDS011;70150;45.582;10.178;2023-08-01T14:43:30;9.02;;;5.47;;
80758;SDS011;70150;45.582;10.178;2023-08-01T14:45:56;9.25;;;5.45;;
80758;SDS011;70150;45.582;10.178;2023-08-01T14:48:22;9.10;;;5.32;;
80758;SDS011;70150;45.582;10.178;2023-08-01T14:50:47;11.55;;;5.45;;
80758;SDS011;70150;45.582;10.178;2023-08-01T14:53:13;9.45;;;5.60;;
80758;SDS011;70150;45.582;10.178;2023-08-01T14:55:39;9.02;;;5.07;;
80758;SDS011;70150;45.582;10.178;2023-08-01T14:58:04;7.68;;;5.30;;
80758;SDS011;70150;45.582;10.178;2023-08-01T15:00:34;9.05;;;4.85;;
80758;SDS011;70150;45.582;10.178;2023-08-01T15:03:01;8.93;;;4.93;;
80758;SDS011;70150;45.582;10.178;2023-08-01T15:05:26;10.95;;;5.63;;
80758;SDS011;70150;45.582;10.178;2023-08-01T15:07:52;8.77;;;5.20;;
80758;SDS011;70150;45.582;10.178;2023-08-01T15:10:17;10.40;;;5.57;;